sensor_id;sensor_type;location;lat;lon;timestamp;temperature;humidity
37456;DHT22;23316;50.718;7.328;2023-05-20T00:00:50;15.90;45.00
37456;DHT22;23316;50.718;7.328;2023-05-20T00:03:18;15.90;45.10
37456;DHT22;23316;50.718;7.328;2023-05-20T00:05:46;15.80;45.00
37456;DHT22;23316;50.718;7.328;2023-05-20T00:08:13;15.80;45.10
37456;DHT22;23316;50.718;7.328;2023-05-20T00:10:40;15.80;45.00
37456;DHT22;23316;50.718;7.328;2023-05-20T00:13:07;15.70;45.50
37456;DHT22;23316;50.718;7.328;2023-05-20T00:15:35;15.70;45.00
37456;DHT22;23316;50.718;7.328;2023-05-20T00:18:04;15.70;45.00
37456;DHT22;23316;50.718;7.328;2023-05-20T00:20:31;15.70;45.20
37456;DHT22;23316;50.718;7.328;2023-05-20T00:22:59;15.70;45.20
37456;DHT22;23316;50.718;7.328;2023-05-20T00:25:26;15.60;45.20
37456;DHT22;23316;50.718;7.328;2023-05-20T00:27:53;15.60;45.30
37456;DHT22;23316;50.718;7.328;2023-05-20T00:30:20;15.60;45.30
37456;DHT22;23316;50.718;7.328;2023-05-20T00:32:47;15.60;45.30
37456;DHT22;23316;50.718;7.328;2023-05-20T00:35:16;15.50;45.30
37456;DHT22;23316;50.718;7.328;2023-05-20T00:37:43;15.50;45.50
37456;DHT22;23316;50.718;7.328;2023-05-20T00:40:11;15.50;45.50
37456;DHT22;23316;50.718;7.328;2023-05-20T00:42:38;15.50;45.50
37456;DHT22;23316;50.718;7.328;2023-05-20T00:45:06;15.40;45.60
37456;DHT22;23316;50.718;7.328;2023-05-20T00:47:34;15.40;45.70
37456;DHT22;23316;50.718;7.328;2023-05-20T00:50:03;15.40;45.70
37456;DHT22;23316;50.718;7.328;2023-05-20T00:52:32;15.40;45.70
37456;DHT22;23316;50.718;7.328;2023-05-20T00:55:00;15.30;45.70
37456;DHT22;23316;50.718;7.328;2023-05-20T00:57:27;15.30;45.60
37456;DHT22;23316;50.718;7.328;2023-05-20T00:59:54;15.30;45.70
37456;DHT22;23316;50.718;7.328;2023-05-20T01:02:22;15.30;45.70
37456;DHT22;23316;50.718;7.328;2023-05-20T01:04:50;15.30;45.70
37456;DHT22;23316;50.718;7.328;2023-05-20T01:07:22;15.20;45.80
37456;DHT22;23316;50.718;7.328;2023-05-20T01:09:51;15.30;45.80
37456;DHT22;23316;50.718;7.328;2023-05-20T01:12:25;15.20;45.80
37456;DHT22;23316;50.718;7.328;2023-05-20T01:14:57;15.20;45.90
37456;DHT22;23316;50.718;7.328;2023-05-20T01:17:26;15.20;46.00
37456;DHT22;23316;50.718;7.328;2023-05-20T01:19:58;15.20;45.90
37456;DHT22;23316;50.718;7.328;2023-05-20T01:22:28;15.20;46.00
37456;DHT22;23316;50.718;7.328;2023-05-20T01:24:56;15.10;46.00
37456;DHT22;23316;50.718;7.328;2023-05-20T01:27:24;15.10;46.00
37456;DHT22;23316;50.718;7.328;2023-05-20T01:29:52;15.10;46.00
37456;DHT22;23316;50.718;7.328;2023-05-20T01:32:21;15.10;46.00
37456;DHT22;23316;50.718;7.328;2023-05-20T01:34:51;15.10;46.10
37456;DHT22;23316;50.718;7.328;2023-05-20T01:37:21;15.00;46.00
37456;DHT22;23316;50.718;7.328;2023-05-20T01:39:53;15.10;46.10
37456;DHT22;23316;50.718;7.328;2023-05-20T01:42:22;15.00;46.20
37456;DHT22;23316;50.718;7.328;2023-05-20T01:44:50;15.00;46.10
37456;DHT22;23316;50.718;7.328;2023-05-20T01:47:19;15.00;46.10
37456;DHT22;23316;50.718;7.328;2023-05-20T01:49:49;15.00;46.10
37456;DHT22;23316;50.718;7.328;2023-05-20T01:52:19;15.00;46.20
37456;DHT22;23316;50.718;7.328;2023-05-20T01:54:47;14.90;46.20
37456;DHT22;23316;50.718;7.328;2023-05-20T01:57:18;14.90;46.30
37456;DHT22;23316;50.718;7.328;2023-05-20T01:59:48;14.90;46.50
37456;DHT22;23316;50.718;7.328;2023-05-20T02:02:16;14.90;46.60
37456;DHT22;23316;50.718;7.328;2023-05-20T02:04:44;14.90;46.60
37456;DHT22;23316;50.718;7.328;2023-05-20T02:07:13;14.90;46.70
37456;DHT22;23316;50.718;7.328;2023-05-20T02:09:41;14.80;46.60
37456;DHT22;23316;50.718;7.328;2023-05-20T02:12:09;14.80;46.60
37456;DHT22;23316;50.718;7.328;2023-05-20T02:14:43;14.80;46.60
37456;DHT22;23316;50.718;7.328;2023-05-20T02:17:15;14.80;46.60
37456;DHT22;23316;50.718;7.328;2023-05-20T02:19:43;14.80;46.70
37456;DHT22;23316;50.718;7.328;2023-05-20T02:22:11;14.70;46.60
37456;DHT22;23316;50.718;7.328;2023-05-20T02:24:39;14.70;46.60
37456;DHT22;23316;50.718;7.328;2023-05-20T02:27:10;14.70;46.70
37456;DHT22;23316;50.718;7.328;2023-05-20T02:29:37;14.70;46.70
37456;DHT22;23316;50.718;7.328;2023-05-20T02:32:06;14.70;46.80
37456;DHT22;23316;50.718;7.328;2023-05-20T02:34:34;14.70;46.80
37456;DHT22;23316;50.718;7.328;2023-05-20T02:37:02;14.60;46.80
37456;DHT22;23316;50.718;7.328;2023-05-20T02:39:30;14.60;46.90
37456;DHT22;23316;50.718;7.328;2023-05-20T02:41:57;14.60;47.00
37456;DHT22;23316;50.718;7.328;2023-05-20T02:44:25;14.60;47.00
37456;DHT22;23316;50.718;7.328;2023-05-20T02:46:53;14.50;47.00
37456;DHT22;23316;50.718;7.328;2023-05-20T02:49:22;14.50;47.10
37456;DHT22;23316;50.718;7.328;2023-05-20T02:51:50;14.50;47.30
37456;DHT22;23316;50.718;7.328;2023-05-20T02:54:19;14.50;47.30
37456;DHT22;23316;50.718;7.328;2023-05-20T02:56:47;14.40;47.30
37456;DHT22;23316;50.718;7.328;2023-05-20T02:59:14;14.40;47.80
37456;DHT22;23316;50.718;7.328;2023-05-20T03:01:41;14.40;47.30
37456;DHT22;23316;50.718;7.328;2023-05-20T03:04:09;14.40;47.40
37456;DHT22;23316;50.718;7.328;2023-05-20T03:06:39;14.40;47.50
37456;DHT22;23316;50.718;7.328;2023-05-20T03:09:09;14.40;47.60
37456;DHT22;23316;50.718;7.328;2023-05-20T03:11:36;14.30;47.60
37456;DHT22;23316;50.718;7.328;2023-05-20T03:14:04;14.30;47.60
37456;DHT22;23316;50.718;7.328;2023-05-20T03:16:31;14.30;47.60
37456;DHT22;23316;50.718;7.328;2023-05-20T03:19:00;14.30;47.80
37456;DHT22;23316;50.718;7.328;2023-05-20T03:21:27;14.30;47.80
37456;DHT22;23316;50.718;7.328;2023-05-20T03:23:56;14.30;47.90
37456;DHT22;23316;50.718;7.328;2023-05-20T03:26:24;14.20;47.90
37456;DHT22;23316;50.718;7.328;2023-05-20T03:28:51;14.20;47.80
37456;DHT22;23316;50.718;7.328;2023-05-20T03:31:19;14.20;47.90
37456;DHT22;23316;50.718;7.328;2023-05-20T03:33:49;14.20;47.90
37456;DHT22;23316;50.718;7.328;2023-05-20T03:36:17;14.20;48.00
37456;DHT22;23316;50.718;7.328;2023-05-20T03:38:47;14.10;48.00
37456;DHT22;23316;50.718;7.328;2023-05-20T03:41:16;14.10;48.00
37456;DHT22;23316;50.718;7.328;2023-05-20T03:43:44;14.10;48.10
37456;DHT22;23316;50.718;7.328;2023-05-20T03:46:12;14.10;48.20
37456;DHT22;23316;50.718;7.328;2023-05-20T03:48:39;14.10;48.20
37456;DHT22;23316;50.718;7.328;2023-05-20T03:51:07;14.10;48.30
37456;DHT22;23316;50.718;7.328;2023-05-20T03:53:35;14.10;48.60
37456;DHT22;23316;50.718;7.328;2023-05-20T03:56:02;14.10;48.70
37456;DHT22;23316;50.718;7.328;2023-05-20T03:58:31;14.10;48.70
37456;DHT22;23316;50.718;7.328;2023-05-20T04:01:00;14.00;48.70
37456;DHT22;23316;50.718;7.328;2023-05-20T04:03:27;14.00;48.80
37456;DHT22;23316;50.718;7.328;2023-05-20T04:05:55;14.00;48.90
37456;DHT22;23316;50.718;7.328;2023-05-20T04:08:22;14.00;49.00
37456;DHT22;23316;50.718;7.328;2023-05-20T04:10:54;14.00;49.10
37456;DHT22;23316;50.718;7.328;2023-05-20T04:13:24;14.00;49.20
37456;DHT22;23316;50.718;7.328;2023-05-20T04:15:53;14.00;49.20
37456;DHT22;23316;50.718;7.328;2023-05-20T04:18:21;13.90;49.60
37456;DHT22;23316;50.718;7.328;2023-05-20T04:20:48;13.90;49.20
37456;DHT22;23316;50.718;7.328;2023-05-20T04:23:16;13.90;49.30
37456;DHT22;23316;50.718;7.328;2023-05-20T04:25:44;14.00;49.40
37456;DHT22;23316;50.718;7.328;2023-05-20T04:28:12;14.00;49.50
37456;DHT22;23316;50.718;7.328;2023-05-20T04:30:41;14.00;49.70
37456;DHT22;23316;50.718;7.328;2023-05-20T04:33:11;14.00;49.90
37456;DHT22;23316;50.718;7.328;2023-05-20T04:35:39;14.10;50.30
37456;DHT22;23316;50.718;7.328;2023-05-20T04:38:07;14.10;50.30
37456;DHT22;23316;50.718;7.328;2023-05-20T04:40:35;14.20;50.40
37456;DHT22;23316;50.718;7.328;2023-05-20T04:43:02;14.20;50.50
37456;DHT22;23316;50.718;7.328;2023-05-20T04:47:58;14.30;50.90
37456;DHT22;23316;50.718;7.328;2023-05-20T04:50:27;14.40;50.90
37456;DHT22;23316;50.718;7.328;2023-05-20T04:52:55;14.40;51.00
37456;DHT22;23316;50.718;7.328;2023-05-20T04:55:22;14.40;50.80
37456;DHT22;23316;50.718;7.328;2023-05-20T04:57:52;14.40;50.90
37456;DHT22;23316;50.718;7.328;2023-05-20T05:00:20;14.50;50.80
37456;DHT22;23316;50.718;7.328;2023-05-20T05:02:48;14.50;51.50
37456;DHT22;23316;50.718;7.328;2023-05-20T05:05:17;14.50;51.20
37456;DHT22;23316;50.718;7.328;2023-05-20T05:07:46;14.50;51.10
37456;DHT22;23316;50.718;7.328;2023-05-20T05:10:13;14.50;51.10
37456;DHT22;23316;50.718;7.328;2023-05-20T05:12:40;14.60;51.10
37456;DHT22;23316;50.718;7.328;2023-05-20T05:15:09;14.60;51.20
37456;DHT22;23316;50.718;7.328;2023-05-20T05:17:42;14.60;51.00
37456;DHT22;23316;50.718;7.328;2023-05-20T05:20:10;14.60;51.10
37456;DHT22;23316;50.718;7.328;2023-05-20T05:22:37;14.60;51.30
37456;DHT22;23316;50.718;7.328;2023-05-20T05:25:09;14.70;51.50
37456;DHT22;23316;50.718;7.328;2023-05-20T05:27:37;14.60;51.50
37456;DHT22;23316;50.718;7.328;2023-05-20T05:30:06;14.70;51.40
37456;DHT22;23316;50.718;7.328;2023-05-20T05:32:35;14.70;51.50
37456;DHT22;23316;50.718;7.328;2023-05-20T05:35:03;14.70;51.40
37456;DHT22;23316;50.718;7.328;2023-05-20T05:37:31;14.70;51.50
37456;DHT22;23316;50.718;7.328;2023-05-20T05:39:59;14.70;51.40
37456;DHT22;23316;50.718;7.328;2023-05-20T05:42:28;14.80;51.60
37456;DHT22;23316;50.718;7.328;2023-05-20T05:44:55;14.80;51.70
37456;DHT22;23316;50.718;7.328;2023-05-20T05:47:23;14.80;51.50
37456;DHT22;23316;50.718;7.328;2023-05-20T05:49:54;14.90;51.50
37456;DHT22;23316;50.718;7.328;2023-05-20T05:52:36;15.00;51.50
37456;DHT22;23316;50.718;7.328;2023-05-20T05:55:36;15.00;51.80
37456;DHT22;23316;50.718;7.328;2023-05-20T05:58:19;15.00;51.40
37456;DHT22;23316;50.718;7.328;2023-05-20T06:00:50;15.10;51.40
37456;DHT22;23316;50.718;7.328;2023-05-20T06:03:28;15.20;51.40
37456;DHT22;23316;50.718;7.328;2023-05-20T06:06:04;15.30;51.50
37456;DHT22;23316;50.718;7.328;2023-05-20T06:08:37;15.30;51.10
37456;DHT22;23316;50.718;7.328;2023-05-20T06:11:06;15.40;51.50
37456;DHT22;23316;50.718;7.328;2023-05-20T06:13:46;15.50;51.60
37456;DHT22;23316;50.718;7.328;2023-05-20T06:16:20;15.50;51.70
37456;DHT22;23316;50.718;7.328;2023-05-20T06:18:48;15.60;51.40
37456;DHT22;23316;50.718;7.328;2023-05-20T06:21:17;15.60;51.50
37456;DHT22;23316;50.718;7.328;2023-05-20T06:23:46;15.70;51.50
37456;DHT22;23316;50.718;7.328;2023-05-20T06:26:52;15.80;51.40
37456;DHT22;23316;50.718;7.328;2023-05-20T06:29:30;15.80;51.20
37456;DHT22;23316;50.718;7.328;2023-05-20T06:32:04;16.00;51.30
37456;DHT22;23316;50.718;7.328;2023-05-20T06:34:36;16.00;51.20
37456;DHT22;23316;50.718;7.328;2023-05-20T06:40:00;16.20;50.90
37456;DHT22;23316;50.718;7.328;2023-05-20T06:42:33;16.20;50.80
37456;DHT22;23316;50.718;7.328;2023-05-20T06:45:21;16.30;50.80
37456;DHT22;23316;50.718;7.328;2023-05-20T06:47:51;16.40;51.30
37456;DHT22;23316;50.718;7.328;2023-05-20T06:50:31;16.50;50.60
37456;DHT22;23316;50.718;7.328;2023-05-20T06:53:17;16.50;50.60
37456;DHT22;23316;50.718;7.328;2023-05-20T06:55:48;16.60;50.80
37456;DHT22;23316;50.718;7.328;2023-05-20T06:58:29;16.70;50.60
37456;DHT22;23316;50.718;7.328;2023-05-20T07:01:04;16.70;50.50
37456;DHT22;23316;50.718;7.328;2023-05-20T07:03:36;16.80;50.50
37456;DHT22;23316;50.718;7.328;2023-05-20T07:06:07;16.90;50.40
37456;DHT22;23316;50.718;7.328;2023-05-20T07:08:50;17.00;50.30
37456;DHT22;23316;50.718;7.328;2023-05-20T07:11:18;17.00;50.20
37456;DHT22;23316;50.718;7.328;2023-05-20T07:13:46;17.10;50.20
37456;DHT22;23316;50.718;7.328;2023-05-20T07:16:15;17.20;50.30
37456;DHT22;23316;50.718;7.328;2023-05-20T07:18:43;17.20;50.30
37456;DHT22;23316;50.718;7.328;2023-05-20T07:21:10;17.30;50.20
37456;DHT22;23316;50.718;7.328;2023-05-20T07:23:37;17.40;50.00
37456;DHT22;23316;50.718;7.328;2023-05-20T07:26:05;17.40;49.80
37456;DHT22;23316;50.718;7.328;2023-05-20T07:28:32;17.50;49.80
37456;DHT22;23316;50.718;7.328;2023-05-20T07:31:00;17.60;49.70
37456;DHT22;23316;50.718;7.328;2023-05-20T07:33:29;17.70;49.70
37456;DHT22;23316;50.718;7.328;2023-05-20T07:35:57;17.70;49.80
37456;DHT22;23316;50.718;7.328;2023-05-20T07:38:25;17.80;50.10
37456;DHT22;23316;50.718;7.328;2023-05-20T07:40:52;17.90;49.30
37456;DHT22;23316;50.718;7.328;2023-05-20T07:43:19;17.90;49.30
37456;DHT22;23316;50.718;7.328;2023-05-20T07:45:46;18.00;49.30
37456;DHT22;23316;50.718;7.328;2023-05-20T07:48:14;18.00;49.20
37456;DHT22;23316;50.718;7.328;2023-05-20T07:50:43;18.10;49.10
37456;DHT22;23316;50.718;7.328;2023-05-20T07:53:10;18.10;49.00
37456;DHT22;23316;50.718;7.328;2023-05-20T07:55:37;18.20;49.00
37456;DHT22;23316;50.718;7.328;2023-05-20T07:58:05;18.20;49.00
37456;DHT22;23316;50.718;7.328;2023-05-20T08:00:32;18.30;49.10
37456;DHT22;23316;50.718;7.328;2023-05-20T08:02:59;18.40;49.50
37456;DHT22;23316;50.718;7.328;2023-05-20T08:05:27;18.40;49.30
37456;DHT22;23316;50.718;7.328;2023-05-20T08:07:55;18.50;49.30
37456;DHT22;23316;50.718;7.328;2023-05-20T08:10:23;18.50;49.20
37456;DHT22;23316;50.718;7.328;2023-05-20T08:12:50;18.60;49.40
37456;DHT22;23316;50.718;7.328;2023-05-20T08:15:17;18.60;49.40
37456;DHT22;23316;50.718;7.328;2023-05-20T08:17:44;18.70;49.60
37456;DHT22;23316;50.718;7.328;2023-05-20T08:20:12;18.80;49.60
37456;DHT22;23316;50.718;7.328;2023-05-20T08:22:39;18.80;49.70
37456;DHT22;23316;50.718;7.328;2023-05-20T08:25:08;18.90;49.60
37456;DHT22;23316;50.718;7.328;2023-05-20T08:27:36;19.00;49.40
37456;DHT22;23316;50.718;7.328;2023-05-20T08:30:04;19.10;49.30
37456;DHT22;23316;50.718;7.328;2023-05-20T08:32:33;19.30;49.20
37456;DHT22;23316;50.718;7.328;2023-05-20T08:35:00;19.30;49.10
37456;DHT22;23316;50.718;7.328;2023-05-20T08:37:27;19.40;48.70
37456;DHT22;23316;50.718;7.328;2023-05-20T08:39:54;19.50;48.40
37456;DHT22;23316;50.718;7.328;2023-05-20T08:42:23;19.60;48.10
37456;DHT22;23316;50.718;7.328;2023-05-20T08:44:52;19.60;48.00
37456;DHT22;23316;50.718;7.328;2023-05-20T08:47:20;19.70;48.00
37456;DHT22;23316;50.718;7.328;2023-05-20T08:49:47;19.80;47.90
37456;DHT22;23316;50.718;7.328;2023-05-20T08:52:16;19.80;47.80
37456;DHT22;23316;50.718;7.328;2023-05-20T08:54:46;19.90;48.30
37456;DHT22;23316;50.718;7.328;2023-05-20T08:57:14;20.00;47.30
37456;DHT22;23316;50.718;7.328;2023-05-20T08:59:44;20.00;47.00
37456;DHT22;23316;50.718;7.328;2023-05-20T09:02:11;20.00;46.90
37456;DHT22;23316;50.718;7.328;2023-05-20T09:04:39;20.10;46.80
37456;DHT22;23316;50.718;7.328;2023-05-20T09:07:06;20.10;46.70
37456;DHT22;23316;50.718;7.328;2023-05-20T09:09:34;20.20;46.50
37456;DHT22;23316;50.718;7.328;2023-05-20T09:12:02;20.20;46.50
37456;DHT22;23316;50.718;7.328;2023-05-20T09:14:29;20.20;46.60
37456;DHT22;23316;50.718;7.328;2023-05-20T09:16:58;20.30;46.50
37456;DHT22;23316;50.718;7.328;2023-05-20T09:19:26;20.30;46.50
37456;DHT22;23316;50.718;7.328;2023-05-20T09:21:53;20.40;46.70
37456;DHT22;23316;50.718;7.328;2023-05-20T09:24:24;20.50;46.60
37456;DHT22;23316;50.718;7.328;2023-05-20T09:26:52;20.50;46.40
37456;DHT22;23316;50.718;7.328;2023-05-20T09:29:19;20.60;46.20
37456;DHT22;23316;50.718;7.328;2023-05-20T09:31:47;20.60;46.10
37456;DHT22;23316;50.718;7.328;2023-05-20T09:34:16;20.70;46.10
37456;DHT22;23316;50.718;7.328;2023-05-20T09:36:44;20.70;46.20
37456;DHT22;23316;50.718;7.328;2023-05-20T09:39:13;20.80;45.90
37456;DHT22;23316;50.718;7.328;2023-05-20T09:41:49;20.80;45.70
37456;DHT22;23316;50.718;7.328;2023-05-20T09:44:20;20.80;45.40
37456;DHT22;23316;50.718;7.328;2023-05-20T09:46:48;20.90;45.50
37456;DHT22;23316;50.718;7.328;2023-05-20T09:49:19;20.90;45.40
37456;DHT22;23316;50.718;7.328;2023-05-20T09:51:48;21.00;45.40
37456;DHT22;23316;50.718;7.328;2023-05-20T09:54:17;21.00;45.50
37456;DHT22;23316;50.718;7.328;2023-05-20T09:56:45;21.00;45.30
37456;DHT22;23316;50.718;7.328;2023-05-20T09:59:14;21.10;45.40
37456;DHT22;23316;50.718;7.328;2023-05-20T10:01:42;21.10;45.30
37456;DHT22;23316;50.718;7.328;2023-05-20T10:04:11;21.10;45.10
37456;DHT22;23316;50.718;7.328;2023-05-20T10:06:55;21.20;44.90
37456;DHT22;23316;50.718;7.328;2023-05-20T10:09:36;21.20;44.60
37456;DHT22;23316;50.718;7.328;2023-05-20T10:12:16;21.20;44.70
37456;DHT22;23316;50.718;7.328;2023-05-20T10:14:53;21.20;44.80
37456;DHT22;23316;50.718;7.328;2023-05-20T10:17:26;21.30;44.90
37456;DHT22;23316;50.718;7.328;2023-05-20T10:19:58;21.30;45.50
37456;DHT22;23316;50.718;7.328;2023-05-20T10:22:28;21.40;45.00
37456;DHT22;23316;50.718;7.328;2023-05-20T10:25:02;21.40;44.90
37456;DHT22;23316;50.718;7.328;2023-05-20T10:27:41;21.50;45.00
37456;DHT22;23316;50.718;7.328;2023-05-20T10:30:14;21.60;45.00
37456;DHT22;23316;50.718;7.328;2023-05-20T10:32:48;21.60;45.00
37456;DHT22;23316;50.718;7.328;2023-05-20T10:35:21;21.70;44.80
37456;DHT22;23316;50.718;7.328;2023-05-20T10:37:53;21.70;45.00
37456;DHT22;23316;50.718;7.328;2023-05-20T10:40:21;21.80;45.00
37456;DHT22;23316;50.718;7.328;2023-05-20T10:42:48;21.80;44.80
37456;DHT22;23316;50.718;7.328;2023-05-20T10:45:25;21.90;44.90
37456;DHT22;23316;50.718;7.328;2023-05-20T10:47:54;21.90;44.80
37456;DHT22;23316;50.718;7.328;2023-05-20T10:50:26;22.00;44.80
37456;DHT22;23316;50.718;7.328;2023-05-20T10:53:02;22.10;44.50
37456;DHT22;23316;50.718;7.328;2023-05-20T10:55:35;22.10;44.00
37456;DHT22;23316;50.718;7.328;2023-05-20T10:58:03;22.10;43.90
37456;DHT22;23316;50.718;7.328;2023-05-20T11:00:30;22.10;43.70
37456;DHT22;23316;50.718;7.328;2023-05-20T11:02:58;22.00;43.50
37456;DHT22;23316;50.718;7.328;2023-05-20T11:05:27;22.10;43.80
37456;DHT22;23316;50.718;7.328;2023-05-20T11:08:01;22.00;43.50
37456;DHT22;23316;50.718;7.328;2023-05-20T11:10:29;22.00;43.70
37456;DHT22;23316;50.718;7.328;2023-05-20T11:12:56;22.00;43.80
37456;DHT22;23316;50.718;7.328;2023-05-20T11:15:24;21.90;43.80
37456;DHT22;23316;50.718;7.328;2023-05-20T11:17:52;22.00;43.60
37456;DHT22;23316;50.718;7.328;2023-05-20T11:20:20;21.90;43.80
37456;DHT22;23316;50.718;7.328;2023-05-20T11:22:48;21.90;44.00
37456;DHT22;23316;50.718;7.328;2023-05-20T11:25:18;22.00;44.10
37456;DHT22;23316;50.718;7.328;2023-05-20T11:27:45;22.00;44.10
37456;DHT22;23316;50.718;7.328;2023-05-20T11:30:13;22.00;43.80
37456;DHT22;23316;50.718;7.328;2023-05-20T11:32:42;22.10;43.80
37456;DHT22;23316;50.718;7.328;2023-05-20T11:35:20;22.10;43.80
37456;DHT22;23316;50.718;7.328;2023-05-20T11:37:54;22.10;43.80
37456;DHT22;23316;50.718;7.328;2023-05-20T11:40:26;22.20;44.00
37456;DHT22;23316;50.718;7.328;2023-05-20T11:42:54;22.20;43.80
37456;DHT22;23316;50.718;7.328;2023-05-20T11:45:22;22.30;44.00
37456;DHT22;23316;50.718;7.328;2023-05-20T11:48:00;22.30;43.90
37456;DHT22;23316;50.718;7.328;2023-05-20T11:50:27;22.40;43.80
37456;DHT22;23316;50.718;7.328;2023-05-20T11:52:57;22.50;44.00
37456;DHT22;23316;50.718;7.328;2023-05-20T11:55:26;22.50;44.00
37456;DHT22;23316;50.718;7.328;2023-05-20T11:57:54;22.60;43.50
37456;DHT22;23316;50.718;7.328;2023-05-20T12:00:22;22.60;43.40
37456;DHT22;23316;50.718;7.328;2023-05-20T12:02:49;22.60;43.10
37456;DHT22;23316;50.718;7.328;2023-05-20T12:05:17;22.60;43.00
37456;DHT22;23316;50.718;7.328;2023-05-20T12:07:44;22.70;43.30
37456;DHT22;23316;50.718;7.328;2023-05-20T12:10:11;22.70;43.30
37456;DHT22;23316;50.718;7.328;2023-05-20T12:12:42;22.70;43.00
37456;DHT22;23316;50.718;7.328;2023-05-20T12:15:10;22.60;43.00
37456;DHT22;23316;50.718;7.328;2023-05-20T12:17:45;22.60;43.20
37456;DHT22;23316;50.718;7.328;2023-05-20T12:20:14;22.70;43.10
37456;DHT22;23316;50.718;7.328;2023-05-20T12:22:43;22.70;43.30
37456;DHT22;23316;50.718;7.328;2023-05-20T12:25:11;22.70;43.30
37456;DHT22;23316;50.718;7.328;2023-05-20T12:27:42;22.70;43.10
37456;DHT22;23316;50.718;7.328;2023-05-20T12:33:35;22.80;42.80
37456;DHT22;23316;50.718;7.328;2023-05-20T12:36:02;22.80;42.90
37456;DHT22;23316;50.718;7.328;2023-05-20T12:38:29;22.80;42.70
37456;DHT22;23316;50.718;7.328;2023-05-20T12:40:56;22.70;42.70
37456;DHT22;23316;50.718;7.328;2023-05-20T12:43:25;22.70;42.80
37456;DHT22;23316;50.718;7.328;2023-05-20T12:45:52;22.70;42.80
37456;DHT22;23316;50.718;7.328;2023-05-20T12:48:20;22.70;42.80
37456;DHT22;23316;50.718;7.328;2023-05-20T12:50:47;22.70;42.80
37456;DHT22;23316;50.718;7.328;2023-05-20T12:53:14;22.70;43.10
37456;DHT22;23316;50.718;7.328;2023-05-20T12:55:42;22.70;43.00
37456;DHT22;23316;50.718;7.328;2023-05-20T12:58:09;22.70;43.20
37456;DHT22;23316;50.718;7.328;2023-05-20T13:00:37;22.70;43.10
37456;DHT22;23316;50.718;7.328;2023-05-20T13:03:05;22.80;42.80
37456;DHT22;23316;50.718;7.328;2023-05-20T13:05:32;22.80;42.80
37456;DHT22;23316;50.718;7.328;2023-05-20T13:07:59;22.80;42.70
37456;DHT22;23316;50.718;7.328;2023-05-20T13:10:26;22.80;42.50
37456;DHT22;23316;50.718;7.328;2023-05-20T13:12:55;22.80;42.50
37456;DHT22;23316;50.718;7.328;2023-05-20T13:15:22;22.70;42.40
37456;DHT22;23316;50.718;7.328;2023-05-20T13:17:52;22.70;42.40
37456;DHT22;23316;50.718;7.328;2023-05-20T13:20:19;22.70;42.40
37456;DHT22;23316;50.718;7.328;2023-05-20T13:22:46;22.70;42.30
37456;DHT22;23316;50.718;7.328;2023-05-20T13:25:15;22.60;42.30
37456;DHT22;23316;50.718;7.328;2023-05-20T13:27:42;22.60;42.40
37456;DHT22;23316;50.718;7.328;2023-05-20T13:30:10;22.60;42.60
37456;DHT22;23316;50.718;7.328;2023-05-20T13:32:37;22.50;42.70
37456;DHT22;23316;50.718;7.328;2023-05-20T13:35:07;22.50;42.80
37456;DHT22;23316;50.718;7.328;2023-05-20T13:37:34;22.50;42.70
37456;DHT22;23316;50.718;7.328;2023-05-20T13:40:01;22.50;42.70
37456;DHT22;23316;50.718;7.328;2023-05-20T13:42:28;22.50;42.70
37456;DHT22;23316;50.718;7.328;2023-05-20T13:44:56;22.50;42.50
37456;DHT22;23316;50.718;7.328;2023-05-20T13:47:23;22.50;42.50
37456;DHT22;23316;50.718;7.328;2023-05-20T13:49:50;22.40;42.40
37456;DHT22;23316;50.718;7.328;2023-05-20T13:52:19;22.40;42.50
37456;DHT22;23316;50.718;7.328;2023-05-20T13:54:46;22.40;42.40
37456;DHT22;23316;50.718;7.328;2023-05-20T13:57:13;22.40;42.60
37456;DHT22;23316;50.718;7.328;2023-05-20T13:59:41;22.40;42.70
37456;DHT22;23316;50.718;7.328;2023-05-20T14:02:08;22.30;42.60
37456;DHT22;23316;50.718;7.328;2023-05-20T14:04:35;22.30;42.60
37456;DHT22;23316;50.718;7.328;2023-05-20T14:07:04;22.30;42.60
37456;DHT22;23316;50.718;7.328;2023-05-20T14:09:33;22.30;42.60
37456;DHT22;23316;50.718;7.328;2023-05-20T14:12:00;22.30;42.40
37456;DHT22;23316;50.718;7.328;2023-05-20T14:14:27;22.30;42.50
37456;DHT22;23316;50.718;7.328;2023-05-20T14:16:54;22.30;42.60
37456;DHT22;23316;50.718;7.328;2023-05-20T14:19:22;22.30;42.60
37456;DHT22;23316;50.718;7.328;2023-05-20T14:21:49;22.30;42.70
37456;DHT22;23316;50.718;7.328;2023-05-20T14:24:16;22.30;42.60
37456;DHT22;23316;50.718;7.328;2023-05-20T14:26:45;22.30;42.70
37456;DHT22;23316;50.718;7.328;2023-05-20T14:29:12;22.30;42.80
37456;DHT22;23316;50.718;7.328;2023-05-20T14:31:40;22.30;42.90
37456;DHT22;23316;50.718;7.328;2023-05-20T14:34:07;22.40;43.00
37456;DHT22;23316;50.718;7.328;2023-05-20T14:36:34;22.40;42.40
37456;DHT22;23316;50.718;7.328;2023-05-20T14:39:02;22.40;42.00
37456;DHT22;23316;50.718;7.328;2023-05-20T14:41:29;22.40;41.80
37456;DHT22;23316;50.718;7.328;2023-05-20T14:43:58;22.30;41.80
37456;DHT22;23316;50.718;7.328;2023-05-20T14:46:25;22.30;41.60
37456;DHT22;23316;50.718;7.328;2023-05-20T14:48:52;22.30;41.80
37456;DHT22;23316;50.718;7.328;2023-05-20T14:51:19;22.20;42.20
37456;DHT22;23316;50.718;7.328;2023-05-20T14:53:47;22.20;42.20
37456;DHT22;23316;50.718;7.328;2023-05-20T14:56:14;22.20;42.10
37456;DHT22;23316;50.718;7.328;2023-05-20T14:58:41;22.20;41.90
37456;DHT22;23316;50.718;7.328;2023-05-20T15:01:10;22.10;41.80
37456;DHT22;23316;50.718;7.328;2023-05-20T15:03:37;22.10;41.90
37456;DHT22;23316;50.718;7.328;2023-05-20T15:06:04;22.10;42.10
37456;DHT22;23316;50.718;7.328;2023-05-20T15:08:31;22.00;42.20
37456;DHT22;23316;50.718;7.328;2023-05-20T15:10:59;22.00;42.20
37456;DHT22;23316;50.718;7.328;2023-05-20T15:13:26;22.00;42.20
37456;DHT22;23316;50.718;7.328;2023-05-20T15:15:53;22.00;42.10
37456;DHT22;23316;50.718;7.328;2023-05-20T15:18:22;21.90;42.00
37456;DHT22;23316;50.718;7.328;2023-05-20T15:20:49;21.90;41.90
37456;DHT22;23316;50.718;7.328;2023-05-20T15:23:16;21.90;42.10
37456;DHT22;23316;50.718;7.328;2023-05-20T15:25:43;21.80;42.30
37456;DHT22;23316;50.718;7.328;2023-05-20T15:28:11;21.80;42.40
37456;DHT22;23316;50.718;7.328;2023-05-20T15:30:38;21.80;42.50
37456;DHT22;23316;50.718;7.328;2023-05-20T15:33:05;21.80;42.40
37456;DHT22;23316;50.718;7.328;2023-05-20T15:35:34;21.80;42.50
37456;DHT22;23316;50.718;7.328;2023-05-20T15:38:01;21.80;42.60
37456;DHT22;23316;50.718;7.328;2023-05-20T15:40:28;21.80;42.80
37456;DHT22;23316;50.718;7.328;2023-05-20T15:42:56;21.90;42.70
37456;DHT22;23316;50.718;7.328;2023-05-20T15:45:26;21.90;42.50
37456;DHT22;23316;50.718;7.328;2023-05-20T15:47:53;21.90;42.50
37456;DHT22;23316;50.718;7.328;2023-05-20T15:50:21;21.90;42.40